Weather at Gilbert Auxiliary Airfield #1 [CLOSED]

Public forecast

Using degrees Fahrenheit for public forecast. Weather courtesy of forecast.io.

Closest aviation weather report (METAR) to Gilbert Auxiliary Airfield #1

Closest report is Phoenix-Mesa-Gateway Airport, 4.8 nm (9.0 km) S. Retrieved 2021/07/25 01:50 UTC (55 minutes ago):

KIWA 250150Z 11008KT 10SM SCT030 BKN060 BKN100 24/21 A2999

Closest aviation forecast (TAF) to Gilbert Auxiliary Airfield #1

Closest forecast is Phoenix-Mesa-Gateway Airport, 4.8 nm (9.0 km) S. Retrieved 2021-07-25 00:36 UTC (2 hours ago):

TAF KIWA 242333Z 2500/2524 13011KT P6SM FEW020 SCT040 BKN060 FM250300 12005KT P6SM SCT040 BKN060 BKN100 FM250900 12005KT P6SM VCSH BKN060 OVC090 FM251300 12007KT P6SM FEW030 SCT050 BKN060 FM251600 13007KT P6SM VCSH BKN050 PROB30 2517/2521 2SM TSRA BR OVC050CB FM252200 20006KT P6SM BKN070 OVC120